Avoca, Texas
Current Conditions -  °F | °C
As of 3:52 PM on Monday 20 Oct 2014 (Local Time) from KABI Reporting Station
Broken Clouds Broken Clouds  
Wind Chill: 80°   Ceiling: 7500
Heat Index: 80°   Visibility: 10mi
Dew Point: 54°   Wind: 10mph
Humidity: 40%   Direction: 120°ESE
Pressure: 30.04"   Gusts: NA
Location:  32.87°N, 99.72°W
Report Text: KABI 202052Z 12009KT 10SM FEW055 BKN075 27/12 A3004 RMK AO2 SLP148 T02670122 56022
Loading
Personal Weather Stations






























Interactive Weather Map
Tropical Storm Tracking
New forecast layout! Learn more

10-Day Weather Forecast

Advertisements
Track Severe Weather on mobile